createdAt,value
2017-11-08T00:02:00.186Z,55.73
2017-11-08T00:04:27.698Z,52.37
2017-11-08T00:06:56.151Z,56.00
2017-11-08T00:09:23.666Z,60.93
2017-11-08T00:11:51.167Z,63.40
2017-11-08T00:14:18.682Z,59.33
2017-11-08T00:16:46.180Z,57.03
2017-11-08T00:19:13.693Z,56.40
2017-11-08T00:21:47.165Z,56.43
2017-11-08T00:24:24.523Z,55.03
2017-11-08T00:26:52.045Z,57.87
2017-11-08T00:29:19.549Z,60.30
2017-11-08T00:31:47.037Z,61.83
2017-11-08T00:34:14.533Z,64.23
2017-11-08T00:36:42.059Z,60.93
2017-11-08T00:39:09.570Z,58.23
2017-11-08T00:41:37.070Z,62.93
2017-11-08T00:44:04.586Z,71.33
2017-11-08T00:46:32.095Z,60.27
2017-11-08T00:48:59.611Z,65.60
2017-11-08T00:51:27.113Z,65.07
2017-11-08T00:53:54.614Z,64.67
2017-11-08T00:56:22.178Z,62.70
2017-11-08T00:58:49.676Z,56.40
2017-11-08T01:01:17.181Z,57.13
2017-11-08T01:03:46.626Z,56.50
2017-11-08T01:06:14.152Z,58.93
2017-11-08T01:08:41.655Z,55.27
2017-11-08T01:11:09.146Z,60.60
2017-11-08T01:13:36.636Z,56.77
2017-11-08T01:16:04.160Z,55.67
2017-11-08T01:18:31.697Z,55.63
2017-11-08T01:20:59.194Z,55.03
2017-11-08T01:23:26.693Z,53.83
2017-11-08T01:25:54.206Z,52.00
2017-11-08T01:28:21.701Z,61.23
2017-11-08T01:30:49.230Z,54.23
2017-11-08T01:33:16.721Z,45.97
2017-11-08T01:35:44.230Z,49.73
2017-11-08T01:38:12.650Z,46.40
2017-11-08T01:40:44.074Z,52.13
2017-11-08T01:43:11.569Z,43.93
2017-11-08T01:45:42.070Z,49.43
2017-11-08T01:48:09.566Z,46.10
2017-11-08T01:50:38.951Z,42.10
2017-11-08T01:53:06.503Z,45.93
2017-11-08T01:55:34.027Z,41.40
2017-11-08T01:58:01.537Z,45.87
2017-11-08T02:00:29.070Z,40.87
2017-11-08T02:02:56.572Z,39.67
2017-11-08T02:05:24.066Z,39.70
2017-11-08T02:07:51.588Z,44.37
2017-11-08T02:10:19.123Z,43.07
2017-11-08T02:12:46.622Z,43.57
2017-11-08T02:15:14.201Z,41.97
2017-11-08T02:17:47.288Z,47.47
2017-11-08T02:20:14.790Z,47.57
2017-11-08T02:22:42.295Z,53.13
2017-11-08T02:25:12.783Z,54.83
2017-11-08T02:27:40.314Z,53.40
2017-11-08T02:30:07.815Z,60.53
2017-11-08T02:32:35.315Z,56.87
2017-11-08T02:35:02.836Z,65.63
2017-11-08T02:37:30.334Z,64.23
2017-11-08T02:39:57.847Z,51.33
2017-11-08T02:42:25.391Z,47.80
2017-11-08T02:44:52.907Z,46.47
2017-11-08T02:47:20.427Z,44.83
2017-11-08T02:49:47.930Z,48.70
2017-11-08T02:52:15.444Z,46.00
2017-11-08T02:54:42.950Z,47.30
2017-11-08T02:57:10.470Z,48.97
2017-11-08T02:59:40.892Z,50.73
2017-11-08T03:05:16.456Z,48.20
2017-11-08T03:07:43.970Z,55.50
2017-11-08T03:10:11.495Z,48.40
2017-11-08T03:12:39.003Z,45.17
2017-11-08T03:15:06.504Z,52.13
2017-11-08T03:17:34.089Z,55.47
2017-11-08T03:20:01.586Z,57.47
2017-11-08T03:22:29.097Z,53.47
2017-11-08T03:24:56.592Z,50.37
2017-11-08T03:27:24.163Z,66.40
2017-11-08T03:29:51.676Z,78.20
2017-11-08T03:32:19.162Z,70.20
2017-11-08T03:34:46.709Z,69.97
2017-11-08T03:37:14.211Z,86.97
2017-11-08T03:39:41.810Z,92.93
2017-11-08T03:42:09.422Z,91.57
2017-11-08T03:44:36.922Z,69.47
2017-11-08T03:47:04.441Z,80.50
2017-11-08T03:49:31.944Z,66.03
2017-11-08T03:51:59.443Z,60.27
2017-11-08T03:54:26.933Z,60.63
2017-11-08T03:56:54.426Z,63.47
2017-11-08T03:59:21.930Z,66.03
2017-11-08T04:01:49.440Z,77.33
2017-11-08T04:04:16.939Z,90.37
2017-11-08T04:06:44.462Z,77.97
2017-11-08T04:09:11.948Z,73.93
2017-11-08T04:11:39.458Z,74.37
2017-11-08T04:14:06.962Z,59.83
2017-11-08T04:16:34.471Z,59.67
2017-11-08T04:19:02.002Z,49.37
2017-11-08T04:21:29.525Z,48.10
2017-11-08T04:23:57.031Z,51.97
2017-11-08T04:26:24.543Z,50.83
2017-11-08T04:28:52.052Z,50.93
2017-11-08T04:31:19.586Z,46.13
2017-11-08T04:33:47.115Z,38.60
2017-11-08T04:36:14.628Z,40.17
2017-11-08T04:38:42.140Z,35.80
2017-11-08T04:41:09.633Z,39.80
2017-11-08T04:43:37.146Z,32.17
2017-11-08T04:46:04.638Z,34.67
2017-11-08T04:48:32.135Z,30.67
2017-11-08T04:50:59.667Z,36.73
2017-11-08T04:53:27.181Z,44.93
2017-11-08T04:55:54.729Z,40.33
2017-11-08T04:58:22.246Z,40.60
2017-11-08T05:00:49.761Z,36.70
2017-11-08T05:03:17.266Z,45.73
2017-11-08T05:05:44.779Z,46.40
2017-11-08T05:08:12.297Z,45.23
2017-11-08T05:10:39.812Z,41.53
2017-11-08T05:13:07.316Z,35.07
2017-11-08T05:15:34.826Z,36.80
2017-11-08T05:18:02.362Z,33.20
2017-11-08T05:20:29.865Z,33.77
2017-11-08T05:22:57.402Z,37.07
2017-11-08T05:25:24.917Z,29.80
2017-11-08T05:27:52.427Z,31.97
2017-11-08T05:30:19.970Z,24.20
2017-11-08T05:32:47.476Z,22.77
2017-11-08T05:35:14.978Z,28.93
2017-11-08T05:37:42.494Z,19.27
2017-11-08T05:40:10.016Z,23.00
2017-11-08T05:42:37.536Z,24.43
2017-11-08T05:45:05.081Z,19.00
2017-11-08T05:47:32.631Z,17.13
2017-11-08T05:50:00.131Z,19.87
2017-11-08T05:52:27.641Z,18.53
2017-11-08T05:54:55.142Z,18.17
2017-11-08T05:57:22.650Z,21.00
2017-11-08T05:59:50.176Z,21.00
2017-11-08T06:02:17.725Z,17.23
2017-11-08T06:04:45.323Z,23.60
2017-11-08T06:07:12.821Z,18.57
2017-11-08T06:09:40.339Z,22.20
2017-11-08T06:12:07.832Z,19.03
2017-11-08T06:14:35.350Z,16.80
2017-11-08T06:17:02.867Z,14.20
2017-11-08T06:19:30.366Z,15.10
2017-11-08T06:21:57.865Z,13.90
2017-11-08T06:24:25.361Z,16.10
2017-11-08T06:26:52.879Z,13.77
2017-11-08T06:29:20.377Z,28.83
2017-11-08T06:31:47.878Z,13.77
2017-11-08T06:34:15.373Z,20.23
2017-11-08T06:36:42.874Z,13.27
2017-11-08T06:39:10.362Z,14.17
2017-11-08T06:41:37.869Z,13.90
2017-11-08T06:44:05.381Z,13.17
2017-11-08T06:46:32.875Z,13.30
2017-11-08T06:49:00.396Z,12.63
2017-11-08T06:51:27.892Z,12.00
2017-11-08T06:53:55.536Z,11.67
2017-11-08T06:56:23.069Z,13.90
2017-11-08T06:58:50.981Z,15.10
2017-11-08T07:01:18.547Z,9.93
2017-11-08T07:03:46.062Z,15.40
2017-11-08T07:06:13.558Z,12.03
2017-11-08T07:08:44.001Z,11.57
2017-11-08T07:11:11.503Z,9.60
2017-11-08T07:13:38.998Z,9.47
2017-11-08T07:16:07.275Z,12.57
2017-11-08T07:18:34.767Z,8.97
2017-11-08T07:21:02.274Z,9.90
2017-11-08T07:23:29.774Z,11.03
2017-11-08T07:25:57.310Z,11.50
2017-11-08T07:28:24.806Z,8.70
2017-11-08T07:30:52.722Z,8.50
2017-11-08T07:33:20.239Z,8.67
2017-11-08T07:35:47.738Z,14.17
2017-11-08T07:38:15.242Z,9.40
2017-11-08T07:40:42.751Z,8.27
2017-11-08T07:43:10.254Z,9.13
2017-11-08T07:45:37.749Z,8.43
2017-11-08T07:48:05.245Z,8.60
2017-11-08T07:50:32.754Z,8.37
2017-11-08T07:53:00.271Z,9.07
2017-11-08T07:55:33.532Z,8.07
2017-11-08T07:58:01.018Z,7.37
2017-11-08T08:00:28.528Z,8.00
2017-11-08T08:02:56.054Z,7.30
2017-11-08T08:05:23.556Z,7.57
2017-11-08T08:07:51.063Z,6.83
2017-11-08T08:10:18.566Z,8.80
2017-11-08T08:12:46.052Z,13.40
2017-11-08T08:15:13.550Z,10.67
2017-11-08T08:17:41.035Z,7.00
2017-11-08T08:20:08.539Z,4.50
2017-11-08T08:22:36.050Z,3.97
2017-11-08T08:25:03.562Z,2.90
2017-11-08T08:27:31.146Z,2.80
2017-11-08T08:29:58.654Z,2.23
2017-11-08T08:32:26.148Z,2.37
2017-11-08T08:34:53.642Z,2.50
2017-11-08T08:37:21.171Z,2.30
2017-11-08T08:39:48.676Z,2.20
2017-11-08T08:42:16.185Z,1.90
2017-11-08T08:44:43.698Z,1.70
2017-11-08T08:47:11.199Z,2.10
2017-11-08T08:49:38.693Z,1.50
2017-11-08T08:52:06.203Z,1.50
2017-11-08T08:54:33.691Z,2.00
2017-11-08T08:57:01.195Z,1.50
2017-11-08T08:59:28.692Z,1.47
2017-11-08T09:01:56.189Z,1.77
2017-11-08T09:04:23.690Z,1.40
2017-11-08T09:06:51.181Z,1.20
2017-11-08T09:09:18.702Z,1.40
2017-11-08T09:11:46.223Z,1.87
2017-11-08T09:14:13.793Z,1.60
2017-11-08T09:16:41.285Z,1.20
2017-11-08T09:19:08.790Z,1.37
2017-11-08T09:21:37.080Z,3.17
2017-11-08T09:24:06.520Z,2.60
2017-11-08T09:26:34.013Z,3.23
2017-11-08T09:29:04.479Z,2.57
2017-11-08T09:31:37.022Z,1.43
2017-11-08T09:34:04.534Z,1.20
2017-11-08T09:36:34.939Z,1.40
2017-11-08T09:39:02.452Z,1.50
2017-11-08T09:41:31.762Z,1.30
2017-11-08T09:43:59.268Z,1.33
2017-11-08T09:46:26.862Z,1.63
2017-11-08T09:48:54.369Z,1.20
2017-11-08T09:51:21.872Z,2.10
2017-11-08T09:53:49.400Z,1.40
2017-11-08T09:56:18.641Z,1.37
2017-11-08T09:58:46.153Z,1.50
2017-11-08T10:01:15.626Z,1.30
2017-11-08T10:03:43.132Z,1.37
2017-11-08T10:06:10.630Z,1.20
2017-11-08T10:08:41.077Z,1.50
2017-11-08T10:11:23.239Z,2.97
2017-11-08T10:13:50.785Z,3.23
2017-11-08T10:16:19.133Z,1.40
2017-11-08T10:18:46.661Z,1.43
2017-11-08T10:21:14.152Z,1.20
2017-11-08T10:23:41.629Z,1.10
2017-11-08T10:26:09.159Z,1.63
2017-11-08T10:28:36.650Z,1.10
2017-11-08T10:31:04.149Z,1.90
2017-11-08T10:33:31.654Z,1.00
2017-11-08T10:35:59.152Z,1.20
2017-11-08T10:38:26.650Z,0.90
2017-11-08T10:40:54.163Z,1.27
2017-11-08T10:43:21.651Z,0.87
2017-11-08T10:45:49.192Z,3.30
2017-11-08T10:48:16.705Z,1.10
2017-11-08T10:50:44.230Z,14.37
2017-11-08T10:53:11.744Z,1.17
2017-11-08T10:55:39.255Z,1.33
2017-11-08T10:58:06.763Z,1.57
2017-11-08T11:00:37.209Z,1.83
2017-11-08T11:03:06.597Z,1.17
2017-11-08T11:05:34.271Z,1.23
2017-11-08T11:08:01.821Z,1.73
2017-11-08T11:10:29.446Z,4.00
2017-11-08T11:13:04.478Z,2.30
2017-11-08T11:15:31.993Z,1.40
2017-11-08T11:17:59.507Z,2.60
2017-11-08T11:20:27.927Z,1.27
2017-11-08T11:22:55.456Z,1.10
2017-11-08T11:25:22.969Z,1.50
2017-11-08T11:27:50.488Z,1.23
2017-11-08T11:30:23.686Z,1.77
2017-11-08T11:32:51.210Z,1.70
2017-11-08T11:35:18.759Z,1.00
2017-11-08T11:37:48.077Z,1.40
2017-11-08T11:40:15.583Z,1.50
2017-11-08T11:42:43.115Z,1.10
2017-11-08T11:45:10.625Z,1.23
2017-11-08T11:47:38.158Z,1.17
2017-11-08T11:50:05.663Z,8.33
2017-11-08T11:52:33.178Z,0.93
2017-11-08T11:55:00.671Z,1.10
2017-11-08T11:57:28.187Z,4.10
2017-11-08T11:59:55.696Z,2.17
2017-11-08T12:02:23.359Z,1.07
2017-11-08T12:04:50.883Z,1.20
2017-11-08T12:07:18.391Z,2.40
2017-11-08T12:09:45.905Z,2.50
2017-11-08T12:12:13.441Z,0.80
2017-11-08T12:14:40.936Z,1.10
2017-11-08T12:17:08.454Z,2.30
2017-11-08T12:19:37.775Z,1.00
2017-11-08T12:22:05.283Z,0.93
2017-11-08T12:24:32.907Z,2.03
2017-11-08T12:27:06.494Z,1.23
2017-11-08T12:29:36.499Z,1.00
2017-11-08T12:32:04.028Z,0.90
2017-11-08T12:34:31.531Z,1.50
2017-11-08T12:36:59.075Z,1.10
2017-11-08T12:39:26.582Z,0.70
2017-11-08T12:41:54.125Z,1.13
2017-11-08T12:44:26.470Z,3.50
2017-11-08T12:46:53.984Z,1.00
2017-11-08T12:49:21.475Z,0.83
2017-11-08T12:51:48.967Z,1.13
2017-11-08T12:54:16.480Z,1.00
2017-11-08T12:56:43.988Z,3.60
2017-11-08T12:59:11.482Z,1.77
2017-11-08T13:01:39.419Z,5.70
2017-11-08T13:04:06.970Z,3.33
2017-11-08T13:06:37.435Z,5.87
2017-11-08T13:09:04.942Z,1.50
2017-11-08T13:11:36.306Z,0.70
2017-11-08T13:14:03.816Z,1.07
2017-11-08T13:16:31.394Z,2.90
2017-11-08T13:18:58.904Z,1.27
2017-11-08T13:21:26.401Z,2.40
2017-11-08T13:23:53.911Z,1.27
2017-11-08T13:26:21.408Z,0.93
2017-11-08T13:28:48.912Z,0.73
2017-11-08T13:31:16.413Z,1.10
2017-11-08T13:33:43.909Z,2.93
2017-11-08T13:36:11.435Z,0.70
2017-11-08T13:38:38.974Z,0.90
2017-11-08T13:41:06.472Z,0.60
2017-11-08T13:43:33.978Z,3.43
2017-11-08T13:46:01.513Z,0.70
2017-11-08T13:48:29.069Z,3.10
2017-11-08T13:50:56.558Z,1.10
2017-11-08T13:53:24.054Z,0.90
2017-11-08T13:55:51.558Z,1.20
2017-11-08T13:58:19.071Z,0.90
2017-11-08T14:00:46.580Z,1.03
2017-11-08T14:03:14.112Z,1.13
2017-11-08T14:05:41.628Z,1.57
2017-11-08T14:08:09.175Z,1.33
2017-11-08T14:10:36.688Z,2.30
2017-11-08T14:13:04.235Z,2.73
2017-11-08T14:15:31.755Z,1.10
2017-11-08T14:17:59.260Z,1.00
2017-11-08T14:20:26.768Z,3.30
2017-11-08T14:22:54.299Z,1.30
2017-11-08T14:25:21.798Z,0.90
2017-11-08T14:27:49.296Z,0.93
2017-11-08T14:30:16.843Z,4.60
2017-11-08T14:32:44.354Z,1.20
2017-11-08T14:35:11.880Z,1.10
2017-11-08T14:37:39.391Z,1.40
2017-11-08T14:40:06.908Z,3.13
2017-11-08T14:42:40.450Z,1.60
2017-11-08T14:45:07.946Z,1.67
2017-11-08T14:47:35.446Z,0.90
2017-11-08T14:50:02.971Z,1.57
2017-11-08T14:52:30.504Z,1.97
2017-11-08T14:54:58.212Z,4.83
2017-11-08T14:57:25.783Z,10.63
2017-11-08T14:59:53.287Z,1.50
2017-11-08T15:02:20.795Z,2.03
2017-11-08T15:04:48.289Z,1.90
2017-11-08T15:07:15.808Z,1.50
2017-11-08T15:09:43.317Z,1.50
2017-11-08T15:12:10.848Z,1.93
2017-11-08T15:14:42.223Z,1.93
2017-11-08T15:17:09.737Z,5.13
2017-11-08T15:19:42.826Z,1.70
2017-11-08T15:22:10.346Z,1.43
2017-11-08T15:24:37.855Z,2.20
2017-11-08T15:27:05.352Z,2.83
2017-11-08T15:29:32.877Z,1.30
2017-11-08T15:32:00.399Z,1.73
2017-11-08T15:34:30.409Z,2.00
2017-11-08T15:36:57.903Z,1.63
2017-11-08T15:39:25.407Z,1.63
2017-11-08T15:41:55.709Z,3.30
2017-11-08T15:44:23.221Z,3.87
2017-11-08T15:46:54.703Z,1.47
2017-11-08T15:49:22.243Z,1.30
2017-11-08T15:51:49.767Z,1.63
2017-11-08T15:54:17.258Z,1.80
2017-11-08T15:56:44.758Z,1.23
2017-11-08T15:59:12.255Z,2.50
2017-11-08T16:01:41.685Z,4.33
2017-11-08T16:04:12.152Z,1.77
2017-11-08T16:06:39.638Z,1.50
2017-11-08T16:09:10.088Z,1.70
2017-11-08T16:11:37.596Z,2.17
2017-11-08T16:14:05.126Z,3.70
2017-11-08T16:16:32.672Z,5.80
2017-11-08T16:19:03.152Z,2.00
2017-11-08T16:21:31.548Z,11.77
2017-11-08T16:23:59.049Z,2.40
2017-11-08T16:26:26.571Z,1.93
2017-11-08T16:28:54.117Z,4.90
2017-11-08T16:31:21.620Z,2.80
2017-11-08T16:33:49.192Z,2.33
2017-11-08T16:36:16.676Z,9.13
2017-11-08T16:38:44.199Z,2.80
2017-11-08T16:41:11.705Z,3.10
2017-11-08T16:43:39.225Z,3.30
2017-11-08T16:46:06.768Z,4.60
2017-11-08T16:48:34.263Z,2.20
2017-11-08T16:51:01.768Z,4.37
2017-11-08T16:53:29.274Z,3.67
2017-11-08T16:55:56.778Z,9.60
2017-11-08T16:58:24.283Z,3.83
2017-11-08T17:00:51.806Z,1.97
2017-11-08T17:03:19.339Z,2.63
2017-11-08T17:05:46.876Z,4.50
2017-11-08T17:08:14.373Z,2.30
2017-11-08T17:10:41.905Z,2.10
2017-11-08T17:13:09.423Z,2.10
2017-11-08T17:15:36.914Z,2.20
2017-11-08T17:18:04.492Z,2.00
2017-11-08T17:20:31.982Z,2.10
2017-11-08T17:22:59.539Z,1.80
2017-11-08T17:25:27.057Z,4.87
2017-11-08T17:27:54.603Z,3.07
2017-11-08T17:30:22.097Z,4.20
2017-11-08T17:32:49.743Z,1.80
2017-11-08T17:35:17.281Z,2.10
2017-11-08T17:37:44.804Z,2.10
2017-11-08T17:40:12.420Z,1.40
2017-11-08T17:42:39.920Z,2.13
2017-11-08T17:45:07.407Z,3.63
2017-11-08T17:47:34.912Z,1.80
2017-11-08T17:50:02.402Z,4.00
2017-11-08T17:52:30.311Z,2.40
2017-11-08T17:54:57.807Z,1.70
2017-11-08T17:57:25.329Z,1.83
2017-11-08T17:59:52.869Z,2.13
2017-11-08T18:02:20.366Z,1.70
2017-11-08T18:04:47.877Z,1.60
2017-11-08T18:07:15.392Z,1.87
2017-11-08T18:09:42.930Z,3.60
2017-11-08T18:12:10.487Z,3.13
2017-11-08T18:14:37.991Z,1.87
2017-11-08T18:17:05.529Z,2.50
2017-11-08T18:19:33.052Z,1.90
2017-11-08T18:22:00.715Z,2.20
2017-11-08T18:24:28.214Z,1.70
2017-11-08T18:26:55.739Z,2.90
2017-11-08T18:29:23.294Z,5.33
2017-11-08T18:31:50.820Z,3.20
2017-11-08T18:34:18.350Z,2.20
2017-11-08T18:36:45.873Z,17.13
2017-11-08T18:39:13.417Z,2.30
2017-11-08T18:41:40.939Z,2.40
2017-11-08T18:44:08.449Z,2.63
2017-11-08T18:46:35.964Z,2.77
2017-11-08T18:49:03.491Z,3.00
2017-11-08T18:51:31.004Z,3.33
2017-11-08T18:53:58.520Z,2.40
2017-11-08T18:56:26.034Z,3.50
2017-11-08T18:58:53.564Z,4.10
2017-11-08T19:01:21.189Z,3.90
2017-11-08T19:03:48.690Z,4.53
2017-11-08T19:06:16.344Z,7.70
2017-11-08T19:08:44.124Z,8.07
2017-11-08T19:11:11.723Z,4.70
2017-11-08T19:13:39.252Z,4.70
2017-11-08T19:16:06.765Z,4.40
2017-11-08T19:18:34.304Z,3.33
2017-11-08T19:21:01.820Z,8.20
2017-11-08T19:23:29.342Z,3.90
2017-11-08T19:25:56.852Z,5.90
2017-11-08T19:28:24.395Z,9.90
2017-11-08T19:30:51.908Z,4.60
2017-11-08T19:33:19.428Z,6.40
2017-11-08T19:35:46.930Z,4.77
2017-11-08T19:38:14.472Z,6.10
2017-11-08T19:40:41.970Z,8.73
2017-11-08T19:43:09.469Z,3.60
2017-11-08T19:45:36.975Z,6.83
2017-11-08T19:48:04.508Z,3.80
2017-11-08T19:50:32.621Z,8.40
2017-11-08T19:53:00.134Z,5.30
2017-11-08T19:55:27.622Z,6.37
2017-11-08T19:57:55.174Z,4.00
2017-11-08T20:00:22.764Z,4.63
2017-11-08T20:02:50.277Z,5.07
2017-11-08T20:05:17.830Z,6.10
2017-11-08T20:07:45.331Z,7.77
2017-11-08T20:10:12.879Z,4.70
2017-11-08T20:12:40.472Z,5.27
2017-11-08T20:15:08.002Z,4.77
2017-11-08T20:17:35.510Z,13.03
2017-11-08T20:20:03.048Z,4.10
2017-11-08T20:22:30.580Z,4.53
2017-11-08T20:24:58.091Z,9.10
2017-11-08T20:27:25.592Z,5.93
2017-11-08T20:29:53.157Z,4.83
2017-11-08T20:32:20.694Z,6.80
2017-11-08T20:34:48.234Z,4.57
2017-11-08T20:37:15.833Z,6.63
2017-11-08T20:39:43.358Z,7.70
2017-11-08T20:42:10.897Z,7.83
2017-11-08T20:44:38.387Z,7.43
2017-11-08T20:47:05.920Z,6.78
2017-11-08T20:49:33.472Z,5.50
2017-11-08T20:52:00.979Z,64.97
2017-11-08T20:54:28.477Z,4.63
2017-11-08T20:56:55.979Z,4.73
2017-11-08T20:59:23.505Z,15.03
2017-11-08T21:01:51.061Z,10.03
2017-11-08T21:04:18.608Z,5.00
2017-11-08T21:06:46.120Z,4.67
2017-11-08T21:09:13.664Z,8.73
2017-11-08T21:11:41.191Z,5.30
2017-11-08T21:14:08.678Z,4.50
2017-11-08T21:16:36.191Z,4.73
2017-11-08T21:19:03.695Z,5.27
2017-11-08T21:21:31.265Z,6.93
2017-11-08T21:23:58.762Z,7.13
2017-11-08T21:26:26.287Z,5.60
2017-11-08T21:28:53.810Z,5.33
2017-11-08T21:31:21.326Z,7.40
2017-11-08T21:33:48.847Z,7.00
2017-11-08T21:36:16.367Z,11.27
2017-11-08T21:38:43.893Z,7.87
2017-11-08T21:41:11.424Z,5.80
2017-11-08T21:43:39.001Z,17.90
2017-11-08T21:46:06.507Z,6.40
2017-11-08T21:48:34.022Z,7.83
2017-11-08T21:51:01.582Z,5.17
2017-11-08T21:53:29.080Z,7.57
2017-11-08T21:55:56.568Z,6.90
2017-11-08T21:58:24.081Z,6.50
2017-11-08T22:00:51.613Z,5.33
2017-11-08T22:03:19.112Z,9.33
2017-11-08T22:05:46.615Z,5.43
2017-11-08T22:08:14.127Z,6.37
2017-11-08T22:10:41.644Z,17.73
2017-11-08T22:13:09.141Z,9.00
2017-11-08T22:15:36.665Z,7.70
2017-11-08T22:18:04.164Z,8.27
2017-11-08T22:20:31.682Z,8.40
2017-11-08T22:22:59.231Z,8.43
2017-11-08T22:25:26.770Z,32.33
2017-11-08T22:27:54.266Z,6.20
2017-11-08T22:30:21.767Z,8.10
2017-11-08T22:32:49.275Z,8.33
2017-11-08T22:35:16.776Z,7.80
2017-11-08T22:37:44.312Z,10.63
2017-11-08T22:40:11.852Z,9.10
2017-11-08T22:42:40.475Z,11.47
2017-11-08T22:45:07.996Z,7.17
2017-11-08T22:47:35.640Z,8.10
2017-11-08T22:50:03.159Z,7.03
2017-11-08T22:52:30.691Z,8.07
2017-11-08T22:54:58.184Z,10.43
2017-11-08T22:57:25.709Z,7.97
2017-11-08T22:59:53.245Z,9.37
2017-11-08T23:02:20.741Z,8.77
2017-11-08T23:04:48.253Z,10.07
2017-11-08T23:07:15.796Z,10.70
2017-11-08T23:09:43.398Z,9.37
2017-11-08T23:12:11.858Z,10.13
2017-11-08T23:14:39.379Z,7.97
2017-11-08T23:17:06.893Z,9.50
2017-11-08T23:19:34.694Z,21.77
2017-11-08T23:22:02.198Z,8.10
2017-11-08T23:24:29.710Z,8.57
2017-11-08T23:26:57.253Z,8.60
2017-11-08T23:29:24.785Z,12.37
2017-11-08T23:31:52.298Z,11.20
2017-11-08T23:34:19.824Z,14.23
2017-11-08T23:36:47.358Z,11.47
2017-11-08T23:39:14.879Z,19.60
2017-11-08T23:41:42.420Z,9.23
2017-11-08T23:44:09.943Z,9.60
2017-11-08T23:46:37.457Z,9.67
2017-11-08T23:49:04.964Z,10.27
2017-11-08T23:51:32.499Z,9.43
2017-11-08T23:54:00.952Z,9.53
2017-11-08T23:56:32.470Z,11.37
2017-11-08T23:58:59.991Z,9.43
